sensor_id;sensor_type;location;lat;lon;timestamp;P1;durP1;ratioP1;P2;durP2;ratioP2
20491;SDS011;10404;51.468;6.762;2023-06-14T00:00:50;6.75;;;6.05;;
20491;SDS011;10404;51.468;6.762;2023-06-14T00:03:17;6.55;;;5.72;;
20491;SDS011;10404;51.468;6.762;2023-06-14T00:05:47;6.53;;;5.93;;
20491;SDS011;10404;51.468;6.762;2023-06-14T00:08:13;6.72;;;6.13;;
20491;SDS011;10404;51.468;6.762;2023-06-14T00:10:39;6.78;;;6.18;;
20491;SDS011;10404;51.468;6.762;2023-06-14T00:13:07;6.65;;;6.05;;
20491;SDS011;10404;51.468;6.762;2023-06-14T00:15:35;7.35;;;6.10;;
20491;SDS011;10404;51.468;6.762;2023-06-14T00:18:01;6.63;;;6.13;;
20491;SDS011;10404;51.468;6.762;2023-06-14T00:20:28;7.05;;;6.35;;
20491;SDS011;10404;51.468;6.762;2023-06-14T00:22:55;8.43;;;6.32;;
20491;SDS011;10404;51.468;6.762;2023-06-14T00:25:22;7.60;;;6.07;;
20491;SDS011;10404;51.468;6.762;2023-06-14T00:27:50;6.57;;;5.97;;
20491;SDS011;10404;51.468;6.762;2023-06-14T00:30:16;5.97;;;5.43;;
20491;SDS011;10404;51.468;6.762;2023-06-14T00:32:42;6.78;;;6.18;;
20491;SDS011;10404;51.468;6.762;2023-06-14T00:35:08;6.88;;;6.13;;
20491;SDS011;10404;51.468;6.762;2023-06-14T00:37:34;6.45;;;5.85;;
20491;SDS011;10404;51.468;6.762;2023-06-14T00:40:00;6.32;;;5.75;;
20491;SDS011;10404;51.468;6.762;2023-06-14T00:42:26;7.38;;;6.50;;
20491;SDS011;10404;51.468;6.762;2023-06-14T00:44:53;6.40;;;5.90;;
20491;SDS011;10404;51.468;6.762;2023-06-14T00:47:19;7.72;;;7.03;;
20491;SDS011;10404;51.468;6.762;2023-06-14T00:49:45;8.25;;;5.70;;
20491;SDS011;10404;51.468;6.762;2023-06-14T00:52:18;6.93;;;5.63;;
20491;SDS011;10404;51.468;6.762;2023-06-14T00:54:44;8.52;;;6.93;;
20491;SDS011;10404;51.468;6.762;2023-06-14T00:57:10;6.68;;;6.07;;
20491;SDS011;10404;51.468;6.762;2023-06-14T00:59:38;6.78;;;6.03;;
20491;SDS011;10404;51.468;6.762;2023-06-14T01:02:11;7.30;;;6.60;;
20491;SDS011;10404;51.468;6.762;2023-06-14T01:04:39;6.75;;;6.10;;
20491;SDS011;10404;51.468;6.762;2023-06-14T01:15:22;6.72;;;5.88;;
20491;SDS011;10404;51.468;6.762;2023-06-14T01:17:51;5.90;;;5.40;;
20491;SDS011;10404;51.468;6.762;2023-06-14T01:20:19;5.93;;;5.32;;
20491;SDS011;10404;51.468;6.762;2023-06-14T01:22:53;6.13;;;5.63;;
20491;SDS011;10404;51.468;6.762;2023-06-14T01:25:19;6.05;;;5.47;;
20491;SDS011;10404;51.468;6.762;2023-06-14T01:27:49;6.03;;;5.53;;
20491;SDS011;10404;51.468;6.762;2023-06-14T01:30:18;6.57;;;5.90;;
20491;SDS011;10404;51.468;6.762;2023-06-14T01:32:45;6.10;;;5.47;;
20491;SDS011;10404;51.468;6.762;2023-06-14T01:35:11;6.00;;;5.38;;
20491;SDS011;10404;51.468;6.762;2023-06-14T01:37:37;6.10;;;5.45;;
20491;SDS011;10404;51.468;6.762;2023-06-14T01:40:04;6.78;;;5.55;;
20491;SDS011;10404;51.468;6.762;2023-06-14T01:42:33;6.18;;;5.25;;
20491;SDS011;10404;51.468;6.762;2023-06-14T01:47:26;5.30;;;4.80;;
20491;SDS011;10404;51.468;6.762;2023-06-14T01:49:52;5.97;;;5.20;;
20491;SDS011;10404;51.468;6.762;2023-06-14T01:52:18;7.35;;;5.03;;
20491;SDS011;10404;51.468;6.762;2023-06-14T01:54:44;8.30;;;5.60;;
20491;SDS011;10404;51.468;6.762;2023-06-14T01:57:11;6.38;;;5.65;;
20491;SDS011;10404;51.468;6.762;2023-06-14T01:59:36;6.82;;;6.10;;
20491;SDS011;10404;51.468;6.762;2023-06-14T02:02:02;6.63;;;5.32;;
20491;SDS011;10404;51.468;6.762;2023-06-14T02:04:28;7.97;;;5.53;;
20491;SDS011;10404;51.468;6.762;2023-06-14T02:06:54;6.38;;;5.78;;
20491;SDS011;10404;51.468;6.762;2023-06-14T02:09:19;5.68;;;5.15;;
20491;SDS011;10404;51.468;6.762;2023-06-14T02:11:45;5.78;;;5.18;;
20491;SDS011;10404;51.468;6.762;2023-06-14T02:14:10;7.55;;;6.25;;
20491;SDS011;10404;51.468;6.762;2023-06-14T02:16:36;6.03;;;5.43;;
20491;SDS011;10404;51.468;6.762;2023-06-14T02:19:04;6.43;;;5.40;;
20491;SDS011;10404;51.468;6.762;2023-06-14T02:21:30;5.55;;;5.05;;
20491;SDS011;10404;51.468;6.762;2023-06-14T02:23:55;6.45;;;5.85;;
20491;SDS011;10404;51.468;6.762;2023-06-14T02:26:21;5.60;;;4.88;;
20491;SDS011;10404;51.468;6.762;2023-06-14T02:28:47;7.95;;;5.80;;
20491;SDS011;10404;51.468;6.762;2023-06-14T02:31:13;6.22;;;5.63;;
20491;SDS011;10404;51.468;6.762;2023-06-14T02:33:39;5.90;;;5.30;;
20491;SDS011;10404;51.468;6.762;2023-06-14T02:36:05;5.35;;;4.85;;
20491;SDS011;10404;51.468;6.762;2023-06-14T02:38:31;5.80;;;5.10;;
20491;SDS011;10404;51.468;6.762;2023-06-14T02:40:56;5.28;;;4.53;;
20491;SDS011;10404;51.468;6.762;2023-06-14T02:43:24;5.47;;;4.97;;
20491;SDS011;10404;51.468;6.762;2023-06-14T02:45:49;5.70;;;4.75;;
20491;SDS011;10404;51.468;6.762;2023-06-14T02:48:15;5.38;;;4.93;;
20491;SDS011;10404;51.468;6.762;2023-06-14T02:50:41;5.15;;;4.65;;
20491;SDS011;10404;51.468;6.762;2023-06-14T02:53:07;5.43;;;4.82;;
20491;SDS011;10404;51.468;6.762;2023-06-14T02:55:32;5.03;;;4.30;;
20491;SDS011;10404;51.468;6.762;2023-06-14T02:57:58;6.63;;;4.90;;
20491;SDS011;10404;51.468;6.762;2023-06-14T03:00:24;5.70;;;4.63;;
20491;SDS011;10404;51.468;6.762;2023-06-14T03:02:49;6.55;;;4.80;;
20491;SDS011;10404;51.468;6.762;2023-06-14T03:05:16;5.55;;;5.05;;
20491;SDS011;10404;51.468;6.762;2023-06-14T03:07:46;5.35;;;4.82;;
20491;SDS011;10404;51.468;6.762;2023-06-14T03:10:12;5.60;;;4.78;;
20491;SDS011;10404;51.468;6.762;2023-06-14T03:12:38;4.78;;;4.28;;
20491;SDS011;10404;51.468;6.762;2023-06-14T03:15:04;5.28;;;4.00;;
20491;SDS011;10404;51.468;6.762;2023-06-14T03:17:30;5.03;;;4.53;;
20491;SDS011;10404;51.468;6.762;2023-06-14T03:19:58;6.75;;;4.80;;
20491;SDS011;10404;51.468;6.762;2023-06-14T03:22:25;4.90;;;4.20;;
20491;SDS011;10404;51.468;6.762;2023-06-14T03:24:51;4.63;;;4.03;;
20491;SDS011;10404;51.468;6.762;2023-06-14T03:27:17;4.53;;;4.10;;
20491;SDS011;10404;51.468;6.762;2023-06-14T03:29:43;3.92;;;3.45;;
20491;SDS011;10404;51.468;6.762;2023-06-14T03:32:09;5.85;;;3.95;;
20491;SDS011;10404;51.468;6.762;2023-06-14T03:34:34;4.75;;;4.25;;
20491;SDS011;10404;51.468;6.762;2023-06-14T03:37:00;5.07;;;3.75;;
20491;SDS011;10404;51.468;6.762;2023-06-14T03:39:26;5.22;;;4.20;;
20491;SDS011;10404;51.468;6.762;2023-06-14T03:41:51;4.90;;;4.35;;
20491;SDS011;10404;51.468;6.762;2023-06-14T03:44:17;4.00;;;3.60;;
20491;SDS011;10404;51.468;6.762;2023-06-14T03:46:44;4.88;;;4.38;;
20491;SDS011;10404;51.468;6.762;2023-06-14T03:49:10;4.38;;;3.80;;
20491;SDS011;10404;51.468;6.762;2023-06-14T03:51:36;4.82;;;4.20;;
20491;SDS011;10404;51.468;6.762;2023-06-14T03:54:02;4.22;;;3.50;;
20491;SDS011;10404;51.468;6.762;2023-06-14T03:56:27;5.55;;;3.97;;
20491;SDS011;10404;51.468;6.762;2023-06-14T03:58:53;4.05;;;3.65;;
20491;SDS011;10404;51.468;6.762;2023-06-14T04:01:19;5.53;;;4.20;;
20491;SDS011;10404;51.468;6.762;2023-06-14T04:03:45;4.80;;;3.80;;
20491;SDS011;10404;51.468;6.762;2023-06-14T04:06:10;5.47;;;4.15;;
20491;SDS011;10404;51.468;6.762;2023-06-14T04:08:36;6.60;;;3.90;;
20491;SDS011;10404;51.468;6.762;2023-06-14T04:11:04;5.15;;;3.90;;
20491;SDS011;10404;51.468;6.762;2023-06-14T04:13:30;4.25;;;3.85;;
20491;SDS011;10404;51.468;6.762;2023-06-14T04:15:56;5.20;;;3.40;;
20491;SDS011;10404;51.468;6.762;2023-06-14T04:18:22;5.75;;;3.90;;
20491;SDS011;10404;51.468;6.762;2023-06-14T04:20:48;4.43;;;3.85;;
20491;SDS011;10404;51.468;6.762;2023-06-14T04:23:15;6.57;;;3.55;;
20491;SDS011;10404;51.468;6.762;2023-06-14T04:25:42;3.78;;;3.35;;
20491;SDS011;10404;51.468;6.762;2023-06-14T04:28:11;4.60;;;3.28;;
20491;SDS011;10404;51.468;6.762;2023-06-14T04:30:37;4.90;;;3.67;;
20491;SDS011;10404;51.468;6.762;2023-06-14T04:33:04;4.47;;;3.60;;
20491;SDS011;10404;51.468;6.762;2023-06-14T04:35:30;5.57;;;3.67;;
20491;SDS011;10404;51.468;6.762;2023-06-14T04:37:57;4.93;;;3.83;;
20491;SDS011;10404;51.468;6.762;2023-06-14T04:40:24;4.55;;;3.50;;
20491;SDS011;10404;51.468;6.762;2023-06-14T04:42:50;4.95;;;3.50;;
20491;SDS011;10404;51.468;6.762;2023-06-14T04:45:16;4.22;;;3.70;;
20491;SDS011;10404;51.468;6.762;2023-06-14T04:47:42;3.88;;;3.45;;
20491;SDS011;10404;51.468;6.762;2023-06-14T04:50:09;4.95;;;3.65;;
20491;SDS011;10404;51.468;6.762;2023-06-14T04:52:36;4.38;;;3.38;;
20491;SDS011;10404;51.468;6.762;2023-06-14T04:55:02;4.55;;;3.40;;
20491;SDS011;10404;51.468;6.762;2023-06-14T04:57:28;5.25;;;3.22;;
20491;SDS011;10404;51.468;6.762;2023-06-14T04:59:53;4.07;;;3.38;;
20491;SDS011;10404;51.468;6.762;2023-06-14T05:02:23;4.43;;;3.50;;
20491;SDS011;10404;51.468;6.762;2023-06-14T05:04:49;4.75;;;3.35;;
20491;SDS011;10404;51.468;6.762;2023-06-14T05:07:15;3.88;;;3.03;;
20491;SDS011;10404;51.468;6.762;2023-06-14T05:09:41;5.05;;;3.10;;
20491;SDS011;10404;51.468;6.762;2023-06-14T05:12:06;5.93;;;3.78;;
20491;SDS011;10404;51.468;6.762;2023-06-14T05:14:33;4.78;;;3.63;;
20491;SDS011;10404;51.468;6.762;2023-06-14T05:16:59;4.55;;;3.50;;
20491;SDS011;10404;51.468;6.762;2023-06-14T05:19:25;6.85;;;4.18;;
20491;SDS011;10404;51.468;6.762;2023-06-14T05:21:51;5.07;;;3.53;;
20491;SDS011;10404;51.468;6.762;2023-06-14T05:24:17;5.07;;;3.35;;
20491;SDS011;10404;51.468;6.762;2023-06-14T05:26:43;3.75;;;3.15;;
20491;SDS011;10404;51.468;6.762;2023-06-14T05:29:09;5.00;;;3.38;;
20491;SDS011;10404;51.468;6.762;2023-06-14T05:31:34;3.13;;;2.80;;
20491;SDS011;10404;51.468;6.762;2023-06-14T05:34:00;4.75;;;2.92;;
20491;SDS011;10404;51.468;6.762;2023-06-14T05:36:26;4.40;;;3.00;;
20491;SDS011;10404;51.468;6.762;2023-06-14T05:38:52;5.40;;;3.40;;
20491;SDS011;10404;51.468;6.762;2023-06-14T05:41:24;3.75;;;3.17;;
20491;SDS011;10404;51.468;6.762;2023-06-14T05:43:56;3.38;;;3.03;;
20491;SDS011;10404;51.468;6.762;2023-06-14T05:46:23;3.92;;;3.40;;
20491;SDS011;10404;51.468;6.762;2023-06-14T05:48:53;3.65;;;2.92;;
20491;SDS011;10404;51.468;6.762;2023-06-14T05:51:20;4.53;;;3.10;;
20491;SDS011;10404;51.468;6.762;2023-06-14T05:53:46;5.00;;;3.70;;
20491;SDS011;10404;51.468;6.762;2023-06-14T05:56:12;7.07;;;3.45;;
20491;SDS011;10404;51.468;6.762;2023-06-14T05:58:38;6.75;;;3.42;;
20491;SDS011;10404;51.468;6.762;2023-06-14T06:01:04;4.32;;;3.20;;
20491;SDS011;10404;51.468;6.762;2023-06-14T06:03:30;5.18;;;3.85;;
20491;SDS011;10404;51.468;6.762;2023-06-14T06:05:55;5.00;;;3.35;;
20491;SDS011;10404;51.468;6.762;2023-06-14T06:08:21;4.45;;;3.38;;
20491;SDS011;10404;51.468;6.762;2023-06-14T06:10:47;4.85;;;3.28;;
20491;SDS011;10404;51.468;6.762;2023-06-14T06:13:12;4.97;;;3.22;;
20491;SDS011;10404;51.468;6.762;2023-06-14T06:15:38;3.85;;;2.88;;
20491;SDS011;10404;51.468;6.762;2023-06-14T06:18:03;4.40;;;3.20;;
20491;SDS011;10404;51.468;6.762;2023-06-14T06:20:29;3.63;;;3.30;;
20491;SDS011;10404;51.468;6.762;2023-06-14T06:22:59;4.55;;;3.50;;
20491;SDS011;10404;51.468;6.762;2023-06-14T06:25:26;4.70;;;3.50;;
20491;SDS011;10404;51.468;6.762;2023-06-14T06:27:56;5.45;;;3.35;;
20491;SDS011;10404;51.468;6.762;2023-06-14T06:30:23;8.25;;;3.70;;
20491;SDS011;10404;51.468;6.762;2023-06-14T06:32:49;7.32;;;3.75;;
20491;SDS011;10404;51.468;6.762;2023-06-14T06:35:15;3.78;;;3.30;;
20491;SDS011;10404;51.468;6.762;2023-06-14T06:37:41;5.82;;;3.00;;
20491;SDS011;10404;51.468;6.762;2023-06-14T06:40:07;6.68;;;3.05;;
20491;SDS011;10404;51.468;6.762;2023-06-14T06:42:33;4.47;;;4.07;;
20491;SDS011;10404;51.468;6.762;2023-06-14T06:45:00;3.53;;;2.92;;
20491;SDS011;10404;51.468;6.762;2023-06-14T06:47:25;4.53;;;3.03;;
20491;SDS011;10404;51.468;6.762;2023-06-14T06:49:51;4.43;;;3.00;;
20491;SDS011;10404;51.468;6.762;2023-06-14T06:52:17;3.05;;;2.75;;
20491;SDS011;10404;51.468;6.762;2023-06-14T06:54:42;3.63;;;2.78;;
20491;SDS011;10404;51.468;6.762;2023-06-14T06:57:08;4.32;;;2.70;;
20491;SDS011;10404;51.468;6.762;2023-06-14T06:59:34;3.20;;;2.90;;
20491;SDS011;10404;51.468;6.762;2023-06-14T07:01:59;4.90;;;3.15;;
20491;SDS011;10404;51.468;6.762;2023-06-14T07:04:25;2.83;;;2.50;;
20491;SDS011;10404;51.468;6.762;2023-06-14T07:06:51;3.50;;;1.92;;
20491;SDS011;10404;51.468;6.762;2023-06-14T07:09:16;3.78;;;2.10;;
20491;SDS011;10404;51.468;6.762;2023-06-14T07:11:43;3.67;;;2.03;;
20491;SDS011;10404;51.468;6.762;2023-06-14T07:14:09;2.80;;;2.40;;
20491;SDS011;10404;51.468;6.762;2023-06-14T07:16:35;2.72;;;2.25;;
20491;SDS011;10404;51.468;6.762;2023-06-14T07:19:04;4.90;;;2.15;;
20491;SDS011;10404;51.468;6.762;2023-06-14T07:21:30;3.92;;;2.40;;
20491;SDS011;10404;51.468;6.762;2023-06-14T07:23:55;3.28;;;2.05;;
20491;SDS011;10404;51.468;6.762;2023-06-14T07:26:21;4.40;;;2.35;;
20491;SDS011;10404;51.468;6.762;2023-06-14T07:28:48;2.85;;;2.00;;
20491;SDS011;10404;51.468;6.762;2023-06-14T07:31:15;3.47;;;2.25;;
20491;SDS011;10404;51.468;6.762;2023-06-14T07:33:41;3.25;;;2.38;;
20491;SDS011;10404;51.468;6.762;2023-06-14T07:36:07;4.28;;;2.30;;
20491;SDS011;10404;51.468;6.762;2023-06-14T07:38:33;3.75;;;2.13;;
20491;SDS011;10404;51.468;6.762;2023-06-14T07:40:59;3.55;;;3.05;;
20491;SDS011;10404;51.468;6.762;2023-06-14T07:43:25;3.83;;;2.30;;
20491;SDS011;10404;51.468;6.762;2023-06-14T07:45:50;2.75;;;1.63;;
20491;SDS011;10404;51.468;6.762;2023-06-14T07:48:16;3.40;;;2.03;;
20491;SDS011;10404;51.468;6.762;2023-06-14T07:50:41;2.50;;;2.15;;
20491;SDS011;10404;51.468;6.762;2023-06-14T07:53:08;4.75;;;2.50;;
20491;SDS011;10404;51.468;6.762;2023-06-14T07:55:33;3.15;;;1.95;;
20491;SDS011;10404;51.468;6.762;2023-06-14T07:58:01;3.60;;;2.13;;
20491;SDS011;10404;51.468;6.762;2023-06-14T08:00:34;2.70;;;2.30;;
20491;SDS011;10404;51.468;6.762;2023-06-14T08:02:59;3.55;;;2.33;;
20491;SDS011;10404;51.468;6.762;2023-06-14T08:05:25;3.95;;;2.50;;
20491;SDS011;10404;51.468;6.762;2023-06-14T08:07:51;3.72;;;2.55;;
20491;SDS011;10404;51.468;6.762;2023-06-14T08:10:17;3.67;;;2.45;;
20491;SDS011;10404;51.468;6.762;2023-06-14T08:12:43;2.85;;;1.88;;
20491;SDS011;10404;51.468;6.762;2023-06-14T08:15:09;2.40;;;1.95;;
20491;SDS011;10404;51.468;6.762;2023-06-14T08:17:35;3.92;;;2.60;;
20491;SDS011;10404;51.468;6.762;2023-06-14T08:20:01;5.07;;;2.60;;
20491;SDS011;10404;51.468;6.762;2023-06-14T08:22:28;2.92;;;2.20;;
20491;SDS011;10404;51.468;6.762;2023-06-14T08:24:57;3.60;;;2.28;;
20491;SDS011;10404;51.468;6.762;2023-06-14T08:27:23;4.07;;;2.38;;
20491;SDS011;10404;51.468;6.762;2023-06-14T08:29:48;2.85;;;2.47;;
20491;SDS011;10404;51.468;6.762;2023-06-14T08:32:15;5.63;;;2.10;;
20491;SDS011;10404;51.468;6.762;2023-06-14T08:34:40;3.83;;;2.33;;
20491;SDS011;10404;51.468;6.762;2023-06-14T08:37:06;4.43;;;2.30;;
20491;SDS011;10404;51.468;6.762;2023-06-14T08:39:32;3.33;;;2.50;;
20491;SDS011;10404;51.468;6.762;2023-06-14T08:41:58;4.18;;;2.53;;
20491;SDS011;10404;51.468;6.762;2023-06-14T08:44:26;4.18;;;1.85;;
20491;SDS011;10404;51.468;6.762;2023-06-14T08:46:51;4.72;;;2.55;;
20491;SDS011;10404;51.468;6.762;2023-06-14T08:49:20;3.30;;;2.60;;
20491;SDS011;10404;51.468;6.762;2023-06-14T08:51:46;5.07;;;2.30;;
20491;SDS011;10404;51.468;6.762;2023-06-14T08:54:16;3.55;;;1.92;;
20491;SDS011;10404;51.468;6.762;2023-06-14T08:56:45;3.38;;;2.15;;
20491;SDS011;10404;51.468;6.762;2023-06-14T08:59:13;3.05;;;2.38;;
20491;SDS011;10404;51.468;6.762;2023-06-14T09:01:40;5.00;;;2.75;;
20491;SDS011;10404;51.468;6.762;2023-06-14T09:04:05;3.40;;;2.58;;
20491;SDS011;10404;51.468;6.762;2023-06-14T09:06:31;3.35;;;2.13;;
20491;SDS011;10404;51.468;6.762;2023-06-14T09:08:57;5.10;;;2.38;;
20491;SDS011;10404;51.468;6.762;2023-06-14T09:11:23;3.70;;;2.33;;
20491;SDS011;10404;51.468;6.762;2023-06-14T09:13:50;4.60;;;2.50;;
20491;SDS011;10404;51.468;6.762;2023-06-14T09:16:16;5.68;;;1.80;;
20491;SDS011;10404;51.468;6.762;2023-06-14T09:18:45;3.15;;;2.28;;
20491;SDS011;10404;51.468;6.762;2023-06-14T09:21:15;4.57;;;2.42;;
20491;SDS011;10404;51.468;6.762;2023-06-14T09:23:45;5.07;;;2.50;;
20491;SDS011;10404;51.468;6.762;2023-06-14T09:26:16;5.43;;;2.20;;
20491;SDS011;10404;51.468;6.762;2023-06-14T09:28:47;4.22;;;2.28;;
20491;SDS011;10404;51.468;6.762;2023-06-14T09:31:16;3.58;;;2.10;;
20491;SDS011;10404;51.468;6.762;2023-06-14T09:36:20;2.65;;;2.10;;
20491;SDS011;10404;51.468;6.762;2023-06-14T09:39:02;3.08;;;1.90;;
20491;SDS011;10404;51.468;6.762;2023-06-14T09:41:33;4.18;;;2.20;;
20491;SDS011;10404;51.468;6.762;2023-06-14T09:44:05;3.55;;;2.10;;
20491;SDS011;10404;51.468;6.762;2023-06-14T09:46:32;3.17;;;2.17;;
20491;SDS011;10404;51.468;6.762;2023-06-14T09:48:58;3.00;;;1.75;;
20491;SDS011;10404;51.468;6.762;2023-06-14T09:51:25;5.25;;;2.10;;
20491;SDS011;10404;51.468;6.762;2023-06-14T09:53:52;4.30;;;2.15;;
20491;SDS011;10404;51.468;6.762;2023-06-14T09:56:23;4.13;;;1.58;;
20491;SDS011;10404;51.468;6.762;2023-06-14T09:58:55;3.15;;;2.03;;
20491;SDS011;10404;51.468;6.762;2023-06-14T10:01:21;4.00;;;1.90;;
20491;SDS011;10404;51.468;6.762;2023-06-14T10:03:50;2.70;;;1.83;;
20491;SDS011;10404;51.468;6.762;2023-06-14T10:06:17;3.38;;;2.10;;
20491;SDS011;10404;51.468;6.762;2023-06-14T10:08:42;3.42;;;3.05;;
20491;SDS011;10404;51.468;6.762;2023-06-14T10:11:11;3.20;;;2.15;;
20491;SDS011;10404;51.468;6.762;2023-06-14T10:13:37;3.13;;;1.98;;
20491;SDS011;10404;51.468;6.762;2023-06-14T10:16:11;3.95;;;2.15;;
20491;SDS011;10404;51.468;6.762;2023-06-14T10:18:48;3.38;;;1.65;;
20491;SDS011;10404;51.468;6.762;2023-06-14T10:24:08;2.78;;;1.35;;
20491;SDS011;10404;51.468;6.762;2023-06-14T10:26:49;3.33;;;1.60;;
20491;SDS011;10404;51.468;6.762;2023-06-14T10:29:19;3.83;;;1.40;;
20491;SDS011;10404;51.468;6.762;2023-06-14T10:31:46;3.50;;;1.95;;
20491;SDS011;10404;51.468;6.762;2023-06-14T10:34:20;4.50;;;1.60;;
20491;SDS011;10404;51.468;6.762;2023-06-14T10:37:06;3.25;;;1.85;;
20491;SDS011;10404;51.468;6.762;2023-06-14T10:42:10;1.73;;;1.50;;
20491;SDS011;10404;51.468;6.762;2023-06-14T10:44:43;3.15;;;1.58;;
20491;SDS011;10404;51.468;6.762;2023-06-14T10:50:10;3.17;;;1.50;;
20491;SDS011;10404;51.468;6.762;2023-06-14T10:52:40;3.28;;;1.40;;
20491;SDS011;10404;51.468;6.762;2023-06-14T10:57:41;3.60;;;1.45;;
20491;SDS011;10404;51.468;6.762;2023-06-14T11:00:07;3.78;;;1.88;;
20491;SDS011;10404;51.468;6.762;2023-06-14T11:02:45;3.80;;;1.60;;
20491;SDS011;10404;51.468;6.762;2023-06-14T11:05:14;2.05;;;1.33;;
20491;SDS011;10404;51.468;6.762;2023-06-14T11:10:39;2.25;;;1.30;;
20491;SDS011;10404;51.468;6.762;2023-06-14T11:13:06;3.28;;;1.25;;
20491;SDS011;10404;51.468;6.762;2023-06-14T11:15:32;4.38;;;1.63;;
20491;SDS011;10404;51.468;6.762;2023-06-14T11:18:01;1.75;;;1.52;;
20491;SDS011;10404;51.468;6.762;2023-06-14T11:20:30;4.75;;;2.45;;
20491;SDS011;10404;51.468;6.762;2023-06-14T11:22:57;4.43;;;1.13;;
20491;SDS011;10404;51.468;6.762;2023-06-14T11:25:24;3.15;;;1.77;;
20491;SDS011;10404;51.468;6.762;2023-06-14T11:27:49;2.45;;;1.35;;
20491;SDS011;10404;51.468;6.762;2023-06-14T11:30:16;1.92;;;1.10;;
20491;SDS011;10404;51.468;6.762;2023-06-14T11:32:42;3.53;;;1.52;;
20491;SDS011;10404;51.468;6.762;2023-06-14T11:35:10;4.32;;;1.65;;
20491;SDS011;10404;51.468;6.762;2023-06-14T11:37:36;2.15;;;1.95;;
20491;SDS011;10404;51.468;6.762;2023-06-14T11:40:03;2.42;;;1.17;;
20491;SDS011;10404;51.468;6.762;2023-06-14T11:42:34;2.47;;;1.67;;
20491;SDS011;10404;51.468;6.762;2023-06-14T11:45:00;1.95;;;1.30;;
20491;SDS011;10404;51.468;6.762;2023-06-14T11:47:34;1.65;;;1.35;;
20491;SDS011;10404;51.468;6.762;2023-06-14T11:50:01;4.03;;;1.48;;
20491;SDS011;10404;51.468;6.762;2023-06-14T11:52:34;2.97;;;1.77;;
20491;SDS011;10404;51.468;6.762;2023-06-14T11:55:01;3.35;;;1.40;;
20491;SDS011;10404;51.468;6.762;2023-06-14T11:57:30;3.45;;;1.60;;
20491;SDS011;10404;51.468;6.762;2023-06-14T11:59:59;1.70;;;1.60;;
20491;SDS011;10404;51.468;6.762;2023-06-14T12:02:24;3.20;;;1.50;;
20491;SDS011;10404;51.468;6.762;2023-06-14T12:04:52;3.40;;;1.63;;
20491;SDS011;10404;51.468;6.762;2023-06-14T12:07:18;3.95;;;1.90;;
20491;SDS011;10404;51.468;6.762;2023-06-14T12:12:22;2.85;;;1.80;;
20491;SDS011;10404;51.468;6.762;2023-06-14T12:14:52;3.15;;;1.90;;
20491;SDS011;10404;51.468;6.762;2023-06-14T12:17:18;2.08;;;1.52;;
20491;SDS011;10404;51.468;6.762;2023-06-14T12:19:45;1.80;;;1.70;;
20491;SDS011;10404;51.468;6.762;2023-06-14T12:22:11;2.83;;;1.50;;
20491;SDS011;10404;51.468;6.762;2023-06-14T12:24:38;2.38;;;1.52;;
20491;SDS011;10404;51.468;6.762;2023-06-14T12:27:04;3.90;;;1.85;;
20491;SDS011;10404;51.468;6.762;2023-06-14T12:29:31;3.80;;;1.88;;
20491;SDS011;10404;51.468;6.762;2023-06-14T12:31:56;2.45;;;1.88;;
20491;SDS011;10404;51.468;6.762;2023-06-14T12:34:23;2.65;;;1.70;;
20491;SDS011;10404;51.468;6.762;2023-06-14T12:36:55;3.25;;;1.55;;
20491;SDS011;10404;51.468;6.762;2023-06-14T12:39:20;2.50;;;2.08;;
20491;SDS011;10404;51.468;6.762;2023-06-14T12:41:47;3.70;;;2.10;;
20491;SDS011;10404;51.468;6.762;2023-06-14T12:44:13;2.80;;;2.50;;
20491;SDS011;10404;51.468;6.762;2023-06-14T12:46:39;3.33;;;2.90;;
20491;SDS011;10404;51.468;6.762;2023-06-14T12:49:07;2.80;;;2.42;;
20491;SDS011;10404;51.468;6.762;2023-06-14T12:51:33;2.92;;;2.67;;
20491;SDS011;10404;51.468;6.762;2023-06-14T12:53:59;2.90;;;2.60;;
20491;SDS011;10404;51.468;6.762;2023-06-14T12:56:25;2.88;;;2.58;;
20491;SDS011;10404;51.468;6.762;2023-06-14T12:58:51;5.13;;;2.22;;
20491;SDS011;10404;51.468;6.762;2023-06-14T13:01:17;2.13;;;1.92;;
20491;SDS011;10404;51.468;6.762;2023-06-14T13:03:42;3.42;;;2.25;;
20491;SDS011;10404;51.468;6.762;2023-06-14T13:06:08;5.43;;;3.15;;
20491;SDS011;10404;51.468;6.762;2023-06-14T13:08:33;3.47;;;2.55;;
20491;SDS011;10404;51.468;6.762;2023-06-14T13:10:59;4.43;;;1.98;;
20491;SDS011;10404;51.468;6.762;2023-06-14T13:13:25;4.25;;;3.92;;
20491;SDS011;10404;51.468;6.762;2023-06-14T13:15:50;4.30;;;2.70;;
20491;SDS011;10404;51.468;6.762;2023-06-14T13:18:16;3.88;;;3.13;;
20491;SDS011;10404;51.468;6.762;2023-06-14T13:20:42;4.65;;;2.53;;
20491;SDS011;10404;51.468;6.762;2023-06-14T13:23:08;3.60;;;2.45;;
20491;SDS011;10404;51.468;6.762;2023-06-14T13:25:35;3.00;;;2.42;;
20491;SDS011;10404;51.468;6.762;2023-06-14T13:28:04;3.63;;;3.17;;
20491;SDS011;10404;51.468;6.762;2023-06-14T13:30:30;5.28;;;3.13;;
20491;SDS011;10404;51.468;6.762;2023-06-14T13:32:57;5.20;;;2.83;;
20491;SDS011;10404;51.468;6.762;2023-06-14T13:35:23;3.45;;;2.72;;
20491;SDS011;10404;51.468;6.762;2023-06-14T13:37:49;3.85;;;2.85;;
20491;SDS011;10404;51.468;6.762;2023-06-14T13:40:15;4.30;;;3.17;;
20491;SDS011;10404;51.468;6.762;2023-06-14T13:42:40;3.60;;;3.15;;
20491;SDS011;10404;51.468;6.762;2023-06-14T13:45:06;3.70;;;2.90;;
20491;SDS011;10404;51.468;6.762;2023-06-14T13:47:33;4.57;;;3.30;;
20491;SDS011;10404;51.468;6.762;2023-06-14T13:49:58;4.10;;;3.08;;
20491;SDS011;10404;51.468;6.762;2023-06-14T13:52:24;4.47;;;3.15;;
20491;SDS011;10404;51.468;6.762;2023-06-14T13:54:51;3.45;;;3.15;;
20491;SDS011;10404;51.468;6.762;2023-06-14T13:57:16;3.03;;;2.83;;
20491;SDS011;10404;51.468;6.762;2023-06-14T13:59:42;4.80;;;3.35;;
20491;SDS011;10404;51.468;6.762;2023-06-14T14:02:11;3.03;;;2.55;;
20491;SDS011;10404;51.468;6.762;2023-06-14T14:04:38;4.30;;;3.10;;
20491;SDS011;10404;51.468;6.762;2023-06-14T14:07:04;3.75;;;3.45;;
20491;SDS011;10404;51.468;6.762;2023-06-14T14:09:31;4.55;;;2.80;;
20491;SDS011;10404;51.468;6.762;2023-06-14T14:11:58;3.45;;;3.08;;
20491;SDS011;10404;51.468;6.762;2023-06-14T14:14:24;3.55;;;3.33;;
20491;SDS011;10404;51.468;6.762;2023-06-14T14:16:50;3.40;;;3.15;;
20491;SDS011;10404;51.468;6.762;2023-06-14T14:19:19;4.78;;;4.38;;
20491;SDS011;10404;51.468;6.762;2023-06-14T14:21:46;3.70;;;3.08;;
20491;SDS011;10404;51.468;6.762;2023-06-14T14:24:11;4.18;;;3.53;;
20491;SDS011;10404;51.468;6.762;2023-06-14T14:26:38;6.00;;;3.00;;
20491;SDS011;10404;51.468;6.762;2023-06-14T14:29:04;3.42;;;3.13;;
20491;SDS011;10404;51.468;6.762;2023-06-14T14:31:29;6.50;;;3.35;;
20491;SDS011;10404;51.468;6.762;2023-06-14T14:33:55;3.25;;;2.90;;
20491;SDS011;10404;51.468;6.762;2023-06-14T14:36:21;4.03;;;2.85;;
20491;SDS011;10404;51.468;6.762;2023-06-14T14:38:46;4.40;;;2.80;;
20491;SDS011;10404;51.468;6.762;2023-06-14T14:41:12;4.35;;;3.28;;
20491;SDS011;10404;51.468;6.762;2023-06-14T14:43:38;3.85;;;2.90;;
20491;SDS011;10404;51.468;6.762;2023-06-14T14:46:04;4.07;;;3.33;;
20491;SDS011;10404;51.468;6.762;2023-06-14T14:48:30;4.68;;;3.00;;
20491;SDS011;10404;51.468;6.762;2023-06-14T14:50:56;4.28;;;3.00;;
20491;SDS011;10404;51.468;6.762;2023-06-14T14:53:22;5.22;;;3.05;;
20491;SDS011;10404;51.468;6.762;2023-06-14T14:55:47;3.83;;;3.55;;
20491;SDS011;10404;51.468;6.762;2023-06-14T14:58:13;3.92;;;3.05;;
20491;SDS011;10404;51.468;6.762;2023-06-14T15:00:42;3.08;;;2.88;;
20491;SDS011;10404;51.468;6.762;2023-06-14T15:03:12;3.40;;;3.10;;
20491;SDS011;10404;51.468;6.762;2023-06-14T15:05:38;3.65;;;3.00;;
20491;SDS011;10404;51.468;6.762;2023-06-14T15:08:04;3.28;;;3.03;;
20491;SDS011;10404;51.468;6.762;2023-06-14T15:10:35;3.58;;;3.28;;
20491;SDS011;10404;51.468;6.762;2023-06-14T15:13:01;5.10;;;3.47;;
20491;SDS011;10404;51.468;6.762;2023-06-14T15:15:26;3.80;;;3.45;;